»·PEaware :: N2710U KSBA-KPOC

N2710U :: KSBA-KPOC

FLIGHT INFORMATION

Flight Status: Arrived
Operator: Privately registered:
United States
More flights under this callsign
Pilot: Nathan P. (3026)
Aircraft: CESSNA T210 TURBO CENTURION
(T210)
More flights by this aircraft type
Origin: KSBA Santa Barbara Mun
United States
Destination: KPOC Brackett
United States
More flights between these airports :: More routes between these airports
Route: +
File this flight plan on PilotEdge
Remarks:
Altitude:
(Current/Filed)
0ft
Speed:
(Current/Filed)
0kts
Departed: 04-Jan-20 11:23 AM
Arrived: 04-Jan-20 12:23 PM
Distance/Time
Traveled:
104nm/1:00
Distance/Time
To Go:
Arrived

Flight Plot

Page will automatically refresh every two minutes.

Flight plan parsing failed; only flown route is shown


Map Options




Map Legend


Flown Route
Filed Route
Departure Airport
Arrival Airport
Navaid (VOR, NDB)
Fix

Horizontal Profiles

Position Reports

Time Latitude Longitude Heading Altitude Ground
Speed
04-Jan-20 11:10 34.422587 -119.835561 340 10ft 0kts
04-Jan-20 11:11 34.422587 -119.835561 340 10ft 0kts
04-Jan-20 11:12 34.422587 -119.835561 340 10ft 0kts
04-Jan-20 11:13 34.422587 -119.835561 340 10ft 0kts
04-Jan-20 11:14 34.422615 -119.835708 265 10ft 4kts
04-Jan-20 11:15 34.422627 -119.836526 276 11ft 11kts
04-Jan-20 11:16 34.425222 -119.837895 346 12ft 17kts
04-Jan-20 11:17 34.429796 -119.839293 344 13ft 12kts
04-Jan-20 11:18 34.430438 -119.838813 334 13ft 0kts
04-Jan-20 11:19 34.430494 -119.838867 316 13ft 3kts
04-Jan-20 11:20 34.430705 -119.839715 251 13ft 0kts
04-Jan-20 11:21 34.430249 -119.840206 168 13ft 4kts
04-Jan-20 11:22 34.410791 -119.834097 156 768ft 85kts
04-Jan-20 11:23 34.380391 -119.823536 164 1414ft 134kts
04-Jan-20 11:24 34.342125 -119.812286 164 1400ft 131kts
04-Jan-20 11:25 34.304479 -119.801202 164 1400ft 130kts
04-Jan-20 11:26 34.268993 -119.786081 122 1401ft 128kts
04-Jan-20 11:27 34.265422 -119.746809 71 2098ft 93kts
04-Jan-20 11:28 34.272407 -119.719584 75 2984ft 86kts
04-Jan-20 11:29 34.277224 -119.686478 75 3935ft 109kts
04-Jan-20 11:30 34.282821 -119.648807 74 4845ft 117kts
04-Jan-20 11:31 34.288778 -119.608901 74 5520ft 135kts
04-Jan-20 11:32 34.295423 -119.562532 75 5513ft 139kts
04-Jan-20 11:33 34.302170 -119.516803 74 5514ft 139kts
04-Jan-20 11:34 34.308903 -119.471236 74 5515ft 139kts
04-Jan-20 11:35 34.315596 -119.425762 74 5515ft 139kts
04-Jan-20 11:36 34.319990 -119.379785 79 5516ft 141kts
04-Jan-20 11:37 34.322837 -119.340187 79 5517ft 141kts
04-Jan-20 11:38 34.326401 -119.293152 79 5518ft 142kts
04-Jan-20 11:39 34.330027 -119.245369 79 5518ft 142kts
04-Jan-20 11:40 34.333767 -119.198145 79 5518ft 142kts
04-Jan-20 11:41 34.337254 -119.151992 79 5518ft 139kts
04-Jan-20 11:42 34.340698 -119.106195 79 5518ft 139kts
04-Jan-20 11:43 34.344058 -119.061076 79 5518ft 139kts
04-Jan-20 11:44 34.347437 -119.015376 79 5518ft 139kts
04-Jan-20 11:45 34.350789 -118.969810 79 5518ft 139kts
04-Jan-20 11:46 34.354136 -118.924062 79 5518ft 139kts
04-Jan-20 11:47 34.356201 -118.878186 100 5512ft 144kts
04-Jan-20 11:48 34.341174 -118.833749 107 5518ft 146kts
04-Jan-20 11:49 34.326086 -118.789387 107 5525ft 145kts
04-Jan-20 11:50 34.310976 -118.745056 107 5524ft 147kts
04-Jan-20 11:51 34.295907 -118.700945 108 5521ft 148kts
04-Jan-20 11:52 34.280679 -118.656435 108 5517ft 148kts
04-Jan-20 11:53 34.266373 -118.614675 109 5514ft 149kts
04-Jan-20 11:54 34.253721 -118.577788 109 5512ft 150kts
04-Jan-20 11:55 34.241849 -118.543208 109 5510ft 150kts
04-Jan-20 11:56 34.230701 -118.510760 110 5512ft 151kts
04-Jan-20 11:57 34.219739 -118.478269 109 5515ft 152kts
04-Jan-20 11:58 34.209856 -118.444644 109 5516ft 152kts
04-Jan-20 11:59 34.200079 -118.411442 110 5517ft 152kts
04-Jan-20 12:01 34.189401 -118.375946 112 5518ft 152kts
04-Jan-20 12:02 34.179131 -118.342238 113 5517ft 151kts
04-Jan-20 12:03 34.169583 -118.310496 112 5516ft 150kts
04-Jan-20 12:04 34.166738 -118.275326 88 5374ft 161kts
04-Jan-20 12:05 34.173382 -118.235242 73 4949ft 169kts
04-Jan-20 12:06 34.182966 -118.191143 79 4468ft 169kts
04-Jan-20 12:07 34.175508 -118.149588 105 4024ft 168kts
04-Jan-20 12:08 34.166877 -118.108462 99 3571ft 165kts
04-Jan-20 12:09 34.159895 -118.065993 99 3099ft 160kts
04-Jan-20 12:10 34.154561 -118.027542 96 2597ft 145kts
04-Jan-20 12:11 34.150253 -117.992857 96 2053ft 140kts
04-Jan-20 12:12 34.146060 -117.959239 96 2022ft 109kts
04-Jan-20 12:13 34.142434 -117.932268 95 2030ft 99kts
04-Jan-20 12:14 34.139063 -117.907388 95 2032ft 94kts
04-Jan-20 12:15 34.135834 -117.882511 95 2033ft 92kts
04-Jan-20 12:16 34.133759 -117.858416 95 2034ft 91kts
04-Jan-20 12:17 34.126778 -117.836613 117 2029ft 89kts
04-Jan-20 12:17 34.119706 -117.819433 123 2016ft 90kts
04-Jan-20 12:19 34.107548 -117.798233 93 1987ft 92kts
04-Jan-20 12:20 34.105342 -117.776821 91 1664ft 84kts
04-Jan-20 12:20 34.103488 -117.760508 126 1805ft 77kts
04-Jan-20 12:21 34.091631 -117.768662 268 1192ft 85kts
04-Jan-20 12:23 34.092222 -117.783728 269 990ft 16kts
04-Jan-20 12:23 34.092680 -117.784814 270 985ft 0kts
04-Jan-20 12:24 34.092681 -117.784819 270 985ft 0kts
04-Jan-20 12:26 34.092757 -117.785347 305 983ft 9kts
04-Jan-20 12:26 34.093809 -117.785070 285 984ft 0kts
04-Jan-20 12:27 34.093809 -117.785070 285 984ft 0kts

Navigation Log

Ident Type
Flight plan parsing failed, navigation log unavailable